sensor_id;sensor_type;location;lat;lon;timestamp;P1;durP1;ratioP1;P2;durP2;ratioP2
33912;SDS011;20200;52.084;5.224;2022-07-22T00:01:35;15.0;;;4.3;;
33912;SDS011;20200;52.084;5.224;2022-07-22T00:03:21;14.4;;;4.61;;
33912;SDS011;20200;52.084;5.224;2022-07-22T00:05:08;17.0;;;4.41;;
33912;SDS011;20200;52.084;5.224;2022-07-22T00:06:55;15.7;;;4.3;;
33912;SDS011;20200;52.084;5.224;2022-07-22T00:10:27;19.3;;;4.3;;
33912;SDS011;20200;52.084;5.224;2022-07-22T00:12:15;17.41;;;4.91;;
33912;SDS011;20200;52.084;5.224;2022-07-22T00:14:01;15.5;;;4.2;;
33912;SDS011;20200;52.084;5.224;2022-07-22T00:15:48;17.2;;;4.5;;
33912;SDS011;20200;52.084;5.224;2022-07-22T00:17:36;19.5;;;4.7;;
33912;SDS011;20200;52.084;5.224;2022-07-22T00:21:13;17.7;;;5.0;;
33912;SDS011;20200;52.084;5.224;2022-07-22T00:22:59;13.8;;;4.0;;
33912;SDS011;20200;52.084;5.224;2022-07-22T00:24:46;17.5;;;4.3;;
33912;SDS011;20200;52.084;5.224;2022-07-22T00:26:32;15.4;;;4.41;;
33912;SDS011;20200;52.084;5.224;2022-07-22T00:28:19;15.1;;;3.9;;
33912;SDS011;20200;52.084;5.224;2022-07-22T00:30:07;20.0;;;4.91;;
33912;SDS011;20200;52.084;5.224;2022-07-22T00:33:41;15.2;;;4.5;;
33912;SDS011;20200;52.084;5.224;2022-07-22T00:35:28;14.3;;;4.1;;
33912;SDS011;20200;52.084;5.224;2022-07-22T00:37:15;12.6;;;3.6;;
33912;SDS011;20200;52.084;5.224;2022-07-22T00:39:01;12.9;;;4.2;;
33912;SDS011;20200;52.084;5.224;2022-07-22T00:40:49;14.8;;;4.2;;
33912;SDS011;20200;52.084;5.224;2022-07-22T00:42:36;15.1;;;4.0;;
33912;SDS011;20200;52.084;5.224;2022-07-22T00:46:09;15.9;;;3.9;;
33912;SDS011;20200;52.084;5.224;2022-07-22T00:47:55;12.7;;;3.7;;
33912;SDS011;20200;52.084;5.224;2022-07-22T00:49:41;15.5;;;4.2;;
33912;SDS011;20200;52.084;5.224;2022-07-22T00:51:28;13.4;;;4.3;;
33912;SDS011;20200;52.084;5.224;2022-07-22T00:53:15;15.2;;;3.9;;
33912;SDS011;20200;52.084;5.224;2022-07-22T00:58:38;14.7;;;4.1;;
33912;SDS011;20200;52.084;5.224;2022-07-22T01:00:26;16.0;;;3.9;;
33912;SDS011;20200;52.084;5.224;2022-07-22T01:02:13;16.3;;;4.0;;
33912;SDS011;20200;52.084;5.224;2022-07-22T01:04:00;15.0;;;3.7;;
33912;SDS011;20200;52.084;5.224;2022-07-22T01:05:47;11.6;;;3.7;;
33912;SDS011;20200;52.084;5.224;2022-07-22T01:09:20;17.3;;;3.9;;
33912;SDS011;20200;52.084;5.224;2022-07-22T01:11:07;13.0;;;3.8;;
33912;SDS011;20200;52.084;5.224;2022-07-22T01:12:54;17.2;;;3.9;;
33912;SDS011;20200;52.084;5.224;2022-07-22T01:14:40;15.6;;;4.0;;
33912;SDS011;20200;52.084;5.224;2022-07-22T01:16:29;14.4;;;4.0;;
33912;SDS011;20200;52.084;5.224;2022-07-22T01:18:15;18.8;;;4.0;;
33912;SDS011;20200;52.084;5.224;2022-07-22T01:21:50;13.7;;;3.8;;
33912;SDS011;20200;52.084;5.224;2022-07-22T01:23:37;13.0;;;4.1;;
33912;SDS011;20200;52.084;5.224;2022-07-22T01:25:24;13.7;;;3.9;;
33912;SDS011;20200;52.084;5.224;2022-07-22T01:27:12;13.9;;;4.0;;
33912;SDS011;20200;52.084;5.224;2022-07-22T01:28:58;12.7;;;3.9;;
33912;SDS011;20200;52.084;5.224;2022-07-22T01:30:44;11.3;;;3.7;;
33912;SDS011;20200;52.084;5.224;2022-07-22T01:34:16;10.9;;;3.4;;
33912;SDS011;20200;52.084;5.224;2022-07-22T01:36:03;12.4;;;3.6;;
33912;SDS011;20200;52.084;5.224;2022-07-22T01:37:50;12.3;;;3.4;;
33912;SDS011;20200;52.084;5.224;2022-07-22T01:39:37;13.2;;;3.5;;
33912;SDS011;20200;52.084;5.224;2022-07-22T01:41:23;13.6;;;3.8;;
33912;SDS011;20200;52.084;5.224;2022-07-22T01:43:09;11.7;;;3.7;;
33912;SDS011;20200;52.084;5.224;2022-07-22T01:46:42;12.0;;;3.9;;
33912;SDS011;20200;52.084;5.224;2022-07-22T01:48:28;10.4;;;3.6;;
33912;SDS011;20200;52.084;5.224;2022-07-22T01:50:15;14.1;;;3.7;;
33912;SDS011;20200;52.084;5.224;2022-07-22T01:52:02;10.7;;;3.4;;
33912;SDS011;20200;52.084;5.224;2022-07-22T01:53:50;12.5;;;3.7;;
33912;SDS011;20200;52.084;5.224;2022-07-22T01:57:24;15.8;;;3.6;;
33912;SDS011;20200;52.084;5.224;2022-07-22T01:59:11;11.6;;;3.3;;
33912;SDS011;20200;52.084;5.224;2022-07-22T02:00:58;12.9;;;3.0;;
33912;SDS011;20200;52.084;5.224;2022-07-22T02:02:45;11.5;;;3.5;;
33912;SDS011;20200;52.084;5.224;2022-07-22T02:04:32;11.1;;;3.2;;
33912;SDS011;20200;52.084;5.224;2022-07-22T02:06:18;11.1;;;3.1;;
33912;SDS011;20200;52.084;5.224;2022-07-22T02:09:55;11.6;;;3.4;;
33912;SDS011;20200;52.084;5.224;2022-07-22T02:11:42;15.9;;;3.8;;
33912;SDS011;20200;52.084;5.224;2022-07-22T02:13:28;11.4;;;3.4;;
33912;SDS011;20200;52.084;5.224;2022-07-22T02:15:15;16.2;;;3.6;;
33912;SDS011;20200;52.084;5.224;2022-07-22T02:17:01;13.6;;;3.5;;
33912;SDS011;20200;52.084;5.224;2022-07-22T02:18:48;12.8;;;3.3;;
33912;SDS011;20200;52.084;5.224;2022-07-22T02:22:21;13.6;;;3.8;;
33912;SDS011;20200;52.084;5.224;2022-07-22T02:24:09;14.9;;;3.6;;
33912;SDS011;20200;52.084;5.224;2022-07-22T02:25:55;9.1;;;3.2;;
33912;SDS011;20200;52.084;5.224;2022-07-22T02:27:41;12.8;;;3.2;;
33912;SDS011;20200;52.084;5.224;2022-07-22T02:29:28;13.6;;;3.4;;
33912;SDS011;20200;52.084;5.224;2022-07-22T02:33:00;12.3;;;3.7;;
33912;SDS011;20200;52.084;5.224;2022-07-22T02:34:48;10.9;;;3.3;;
33912;SDS011;20200;52.084;5.224;2022-07-22T02:36:34;12.1;;;3.4;;
33912;SDS011;20200;52.084;5.224;2022-07-22T02:38:20;12.1;;;3.3;;
33912;SDS011;20200;52.084;5.224;2022-07-22T02:40:08;12.0;;;3.5;;
33912;SDS011;20200;52.084;5.224;2022-07-22T02:41:55;12.8;;;3.6;;
33912;SDS011;20200;52.084;5.224;2022-07-22T02:45:27;14.3;;;3.4;;
33912;SDS011;20200;52.084;5.224;2022-07-22T02:47:15;11.4;;;3.1;;
33912;SDS011;20200;52.084;5.224;2022-07-22T02:49:01;13.1;;;3.3;;
33912;SDS011;20200;52.084;5.224;2022-07-22T02:50:49;13.1;;;3.2;;
33912;SDS011;20200;52.084;5.224;2022-07-22T02:52:36;13.7;;;3.5;;
33912;SDS011;20200;52.084;5.224;2022-07-22T02:54:22;10.7;;;3.2;;
33912;SDS011;20200;52.084;5.224;2022-07-22T02:57:56;12.3;;;3.5;;
33912;SDS011;20200;52.084;5.224;2022-07-22T02:59:42;11.6;;;3.2;;
33912;SDS011;20200;52.084;5.224;2022-07-22T03:01:29;13.6;;;3.4;;
33912;SDS011;20200;52.084;5.224;2022-07-22T03:03:15;18.41;;;3.7;;
33912;SDS011;20200;52.084;5.224;2022-07-22T03:05:01;12.3;;;3.1;;
33912;SDS011;20200;52.084;5.224;2022-07-22T03:06:48;12.4;;;3.5;;
33912;SDS011;20200;52.084;5.224;2022-07-22T03:10:23;10.21;;;3.1;;
33912;SDS011;20200;52.084;5.224;2022-07-22T03:12:09;10.3;;;2.9;;
33912;SDS011;20200;52.084;5.224;2022-07-22T03:13:56;13.6;;;2.9;;
33912;SDS011;20200;52.084;5.224;2022-07-22T03:15:42;12.3;;;3.1;;
33912;SDS011;20200;52.084;5.224;2022-07-22T03:17:29;14.7;;;3.7;;
33912;SDS011;20200;52.084;5.224;2022-07-22T03:21:06;17.8;;;3.4;;
33912;SDS011;20200;52.084;5.224;2022-07-22T03:22:52;13.0;;;3.3;;
33912;SDS011;20200;52.084;5.224;2022-07-22T03:24:39;14.1;;;3.3;;
33912;SDS011;20200;52.084;5.224;2022-07-22T03:26:25;12.6;;;3.5;;
33912;SDS011;20200;52.084;5.224;2022-07-22T03:28:11;12.5;;;3.5;;
33912;SDS011;20200;52.084;5.224;2022-07-22T03:29:58;15.3;;;3.6;;
33912;SDS011;20200;52.084;5.224;2022-07-22T03:33:30;9.9;;;2.8;;
33912;SDS011;20200;52.084;5.224;2022-07-22T03:35:16;16.0;;;3.4;;
33912;SDS011;20200;52.084;5.224;2022-07-22T03:37:02;16.0;;;3.7;;
33912;SDS011;20200;52.084;5.224;2022-07-22T03:38:49;13.1;;;3.1;;
33912;SDS011;20200;52.084;5.224;2022-07-22T03:40:35;11.3;;;3.1;;
33912;SDS011;20200;52.084;5.224;2022-07-22T03:44:07;9.9;;;2.8;;
33912;SDS011;20200;52.084;5.224;2022-07-22T03:45:53;11.7;;;3.4;;
33912;SDS011;20200;52.084;5.224;2022-07-22T03:47:40;8.81;;;2.7;;
33912;SDS011;20200;52.084;5.224;2022-07-22T03:49:29;9.6;;;2.9;;
33912;SDS011;20200;52.084;5.224;2022-07-22T03:51:17;11.7;;;2.9;;
33912;SDS011;20200;52.084;5.224;2022-07-22T03:53:03;11.5;;;3.3;;
33912;SDS011;20200;52.084;5.224;2022-07-22T03:56:36;11.3;;;3.1;;
33912;SDS011;20200;52.084;5.224;2022-07-22T03:58:22;13.5;;;3.4;;
33912;SDS011;20200;52.084;5.224;2022-07-22T04:00:09;10.7;;;3.2;;
33912;SDS011;20200;52.084;5.224;2022-07-22T04:01:56;11.9;;;3.0;;
33912;SDS011;20200;52.084;5.224;2022-07-22T04:03:42;10.9;;;3.1;;
33912;SDS011;20200;52.084;5.224;2022-07-22T04:05:28;10.9;;;2.8;;
33912;SDS011;20200;52.084;5.224;2022-07-22T04:09:01;9.5;;;2.8;;
33912;SDS011;20200;52.084;5.224;2022-07-22T04:10:48;10.9;;;2.9;;
33912;SDS011;20200;52.084;5.224;2022-07-22T04:12:35;11.1;;;3.1;;
33912;SDS011;20200;52.084;5.224;2022-07-22T04:14:24;12.6;;;3.1;;
33912;SDS011;20200;52.084;5.224;2022-07-22T04:16:10;9.6;;;2.7;;
33912;SDS011;20200;52.084;5.224;2022-07-22T04:19:43;9.81;;;2.31;;
33912;SDS011;20200;52.084;5.224;2022-07-22T04:23:16;9.31;;;2.4;;
33912;SDS011;20200;52.084;5.224;2022-07-22T04:26:51;8.5;;;2.0;;
33912;SDS011;20200;52.084;5.224;2022-07-22T04:28:37;7.5;;;2.5;;
33912;SDS011;20200;52.084;5.224;2022-07-22T04:32:09;8.4;;;2.1;;
33912;SDS011;20200;52.084;5.224;2022-07-22T04:33:56;7.9;;;2.0;;
33912;SDS011;20200;52.084;5.224;2022-07-22T04:35:44;8.1;;;2.31;;
33912;SDS011;20200;52.084;5.224;2022-07-22T04:37:30;7.5;;;2.0;;
33912;SDS011;20200;52.084;5.224;2022-07-22T04:39:18;13.1;;;2.31;;
33912;SDS011;20200;52.084;5.224;2022-07-22T04:41:04;10.0;;;1.9;;
33912;SDS011;20200;52.084;5.224;2022-07-22T04:44:37;9.5;;;2.1;;
33912;SDS011;20200;52.084;5.224;2022-07-22T04:46:24;7.1;;;2.1;;
33912;SDS011;20200;52.084;5.224;2022-07-22T04:48:11;7.4;;;1.9;;
33912;SDS011;20200;52.084;5.224;2022-07-22T04:49:57;6.5;;;1.9;;
33912;SDS011;20200;52.084;5.224;2022-07-22T04:51:43;6.1;;;1.9;;
33912;SDS011;20200;52.084;5.224;2022-07-22T04:53:30;6.7;;;1.9;;
33912;SDS011;20200;52.084;5.224;2022-07-22T04:57:03;8.81;;;2.0;;
33912;SDS011;20200;52.084;5.224;2022-07-22T04:58:51;8.4;;;2.21;;
33912;SDS011;20200;52.084;5.224;2022-07-22T05:00:38;6.6;;;2.21;;
33912;SDS011;20200;52.084;5.224;2022-07-22T05:02:24;7.4;;;2.0;;
33912;SDS011;20200;52.084;5.224;2022-07-22T05:04:10;8.4;;;1.9;;
33912;SDS011;20200;52.084;5.224;2022-07-22T05:07:45;7.0;;;1.9;;
33912;SDS011;20200;52.084;5.224;2022-07-22T05:09:31;6.7;;;2.21;;
33912;SDS011;20200;52.084;5.224;2022-07-22T05:11:18;5.8;;;1.9;;
33912;SDS011;20200;52.084;5.224;2022-07-22T05:13:04;8.2;;;2.31;;
33912;SDS011;20200;52.084;5.224;2022-07-22T05:14:50;8.6;;;2.21;;
33912;SDS011;20200;52.084;5.224;2022-07-22T05:16:37;6.7;;;2.4;;
33912;SDS011;20200;52.084;5.224;2022-07-22T05:20:11;8.9;;;2.4;;
33912;SDS011;20200;52.084;5.224;2022-07-22T05:21:58;9.31;;;2.6;;
33912;SDS011;20200;52.084;5.224;2022-07-22T05:23:44;9.31;;;2.5;;
33912;SDS011;20200;52.084;5.224;2022-07-22T05:25:30;10.4;;;2.8;;
33912;SDS011;20200;52.084;5.224;2022-07-22T05:27:18;10.9;;;2.5;;
33912;SDS011;20200;52.084;5.224;2022-07-22T05:29:05;9.31;;;2.5;;
33912;SDS011;20200;52.084;5.224;2022-07-22T05:32:38;11.1;;;2.6;;
33912;SDS011;20200;52.084;5.224;2022-07-22T05:34:24;9.21;;;2.31;;
33912;SDS011;20200;52.084;5.224;2022-07-22T05:36:10;7.8;;;2.31;;
33912;SDS011;20200;52.084;5.224;2022-07-22T05:37:58;8.5;;;2.31;;
33912;SDS011;20200;52.084;5.224;2022-07-22T05:39:45;8.0;;;2.1;;
33912;SDS011;20200;52.084;5.224;2022-07-22T05:43:18;8.1;;;2.5;;
33912;SDS011;20200;52.084;5.224;2022-07-22T05:45:06;12.2;;;2.4;;
33912;SDS011;20200;52.084;5.224;2022-07-22T05:46:53;6.7;;;1.9;;
33912;SDS011;20200;52.084;5.224;2022-07-22T05:48:39;8.6;;;2.21;;
33912;SDS011;20200;52.084;5.224;2022-07-22T05:50:27;5.6;;;2.21;;
33912;SDS011;20200;52.084;5.224;2022-07-22T05:52:14;8.1;;;1.9;;
33912;SDS011;20200;52.084;5.224;2022-07-22T05:55:49;5.8;;;2.0;;
33912;SDS011;20200;52.084;5.224;2022-07-22T05:57:35;9.0;;;2.0;;
33912;SDS011;20200;52.084;5.224;2022-07-22T05:59:22;9.81;;;2.6;;
33912;SDS011;20200;52.084;5.224;2022-07-22T06:01:08;8.1;;;2.5;;
33912;SDS011;20200;52.084;5.224;2022-07-22T06:02:56;5.9;;;1.9;;
33912;SDS011;20200;52.084;5.224;2022-07-22T06:04:42;7.9;;;1.8;;
33912;SDS011;20200;52.084;5.224;2022-07-22T06:08:14;5.2;;;2.0;;
33912;SDS011;20200;52.084;5.224;2022-07-22T06:10:00;9.21;;;2.0;;
33912;SDS011;20200;52.084;5.224;2022-07-22T06:11:47;8.4;;;1.9;;
33912;SDS011;20200;52.084;5.224;2022-07-22T06:13:33;10.0;;;2.1;;
33912;SDS011;20200;52.084;5.224;2022-07-22T06:15:20;5.2;;;1.7;;
33912;SDS011;20200;52.084;5.224;2022-07-22T06:18:52;8.4;;;1.9;;
33912;SDS011;20200;52.084;5.224;2022-07-22T06:20:39;7.3;;;2.0;;
33912;SDS011;20200;52.084;5.224;2022-07-22T06:22:26;6.7;;;1.9;;
33912;SDS011;20200;52.084;5.224;2022-07-22T06:24:12;6.8;;;1.8;;
33912;SDS011;20200;52.084;5.224;2022-07-22T06:25:58;5.11;;;1.5;;
33912;SDS011;20200;52.084;5.224;2022-07-22T06:27:44;4.91;;;1.8;;
33912;SDS011;20200;52.084;5.224;2022-07-22T06:31:18;5.7;;;1.8;;
33912;SDS011;20200;52.084;5.224;2022-07-22T06:33:04;6.1;;;1.7;;
33912;SDS011;20200;52.084;5.224;2022-07-22T06:34:50;4.8;;;1.6;;
33912;SDS011;20200;52.084;5.224;2022-07-22T06:36:36;7.8;;;1.9;;
33912;SDS011;20200;52.084;5.224;2022-07-22T06:38:23;7.6;;;2.0;;
33912;SDS011;20200;52.084;5.224;2022-07-22T06:41:57;5.8;;;1.9;;
33912;SDS011;20200;52.084;5.224;2022-07-22T06:43:44;5.6;;;1.8;;
33912;SDS011;20200;52.084;5.224;2022-07-22T06:45:30;4.7;;;1.4;;
33912;SDS011;20200;52.084;5.224;2022-07-22T06:47:17;5.5;;;1.6;;
33912;SDS011;20200;52.084;5.224;2022-07-22T06:49:03;7.8;;;2.21;;
33912;SDS011;20200;52.084;5.224;2022-07-22T06:50:50;7.9;;;4.3;;
33912;SDS011;20200;52.084;5.224;2022-07-22T06:54:26;6.8;;;2.6;;
33912;SDS011;20200;52.084;5.224;2022-07-22T06:56:12;6.5;;;2.4;;
33912;SDS011;20200;52.084;5.224;2022-07-22T06:57:58;6.5;;;1.8;;
33912;SDS011;20200;52.084;5.224;2022-07-22T06:59:44;5.7;;;2.1;;
33912;SDS011;20200;52.084;5.224;2022-07-22T07:01:30;5.7;;;2.1;;
33912;SDS011;20200;52.084;5.224;2022-07-22T07:03:17;6.2;;;1.7;;
33912;SDS011;20200;52.084;5.224;2022-07-22T07:06:51;6.4;;;1.6;;
33912;SDS011;20200;52.084;5.224;2022-07-22T07:08:38;7.3;;;2.21;;
33912;SDS011;20200;52.084;5.224;2022-07-22T07:10:25;7.0;;;2.1;;
33912;SDS011;20200;52.084;5.224;2022-07-22T07:12:12;7.5;;;1.8;;
33912;SDS011;20200;52.084;5.224;2022-07-22T07:13:58;8.6;;;2.0;;
33912;SDS011;20200;52.084;5.224;2022-07-22T07:15:45;10.0;;;2.0;;
33912;SDS011;20200;52.084;5.224;2022-07-22T07:19:19;8.9;;;2.0;;
33912;SDS011;20200;52.084;5.224;2022-07-22T07:21:06;5.11;;;1.8;;
33912;SDS011;20200;52.084;5.224;2022-07-22T07:22:52;6.9;;;1.6;;
33912;SDS011;20200;52.084;5.224;2022-07-22T07:24:39;6.8;;;1.6;;
33912;SDS011;20200;52.084;5.224;2022-07-22T07:26:26;6.7;;;2.0;;
33912;SDS011;20200;52.084;5.224;2022-07-22T07:29:59;8.81;;;2.0;;
33912;SDS011;20200;52.084;5.224;2022-07-22T07:31:46;6.2;;;1.6;;
33912;SDS011;20200;52.084;5.224;2022-07-22T07:33:33;6.0;;;1.6;;
33912;SDS011;20200;52.084;5.224;2022-07-22T07:35:20;7.3;;;1.7;;
33912;SDS011;20200;52.084;5.224;2022-07-22T07:37:06;6.9;;;2.0;;
33912;SDS011;20200;52.084;5.224;2022-07-22T07:38:52;6.0;;;1.5;;
33912;SDS011;20200;52.084;5.224;2022-07-22T07:42:26;5.11;;;1.4;;
33912;SDS011;20200;52.084;5.224;2022-07-22T07:44:13;6.8;;;1.7;;
33912;SDS011;20200;52.084;5.224;2022-07-22T07:45:59;4.5;;;1.7;;
33912;SDS011;20200;52.084;5.224;2022-07-22T07:47:47;7.5;;;1.7;;
33912;SDS011;20200;52.084;5.224;2022-07-22T07:49:35;7.8;;;2.1;;
33912;SDS011;20200;52.084;5.224;2022-07-22T07:51:22;6.1;;;1.8;;
33912;SDS011;20200;52.084;5.224;2022-07-22T07:54:55;16.9;;;3.1;;
33912;SDS011;20200;52.084;5.224;2022-07-22T07:58:28;7.7;;;1.6;;
33912;SDS011;20200;52.084;5.224;2022-07-22T08:00:15;5.3;;;1.7;;
33912;SDS011;20200;52.084;5.224;2022-07-22T08:02:05;7.4;;;1.8;;
33912;SDS011;20200;52.084;5.224;2022-07-22T08:03:53;12.6;;;6.1;;
33912;SDS011;20200;52.084;5.224;2022-07-22T08:07:27;11.0;;;3.4;;
33912;SDS011;20200;52.084;5.224;2022-07-22T08:09:14;6.9;;;1.9;;
33912;SDS011;20200;52.084;5.224;2022-07-22T08:11:00;8.71;;;2.1;;
33912;SDS011;20200;52.084;5.224;2022-07-22T08:12:46;6.9;;;1.9;;
33912;SDS011;20200;52.084;5.224;2022-07-22T08:14:33;6.2;;;1.5;;
33912;SDS011;20200;52.084;5.224;2022-07-22T08:18:07;7.6;;;1.9;;
33912;SDS011;20200;52.084;5.224;2022-07-22T08:19:54;6.7;;;1.9;;
33912;SDS011;20200;52.084;5.224;2022-07-22T08:21:42;7.5;;;2.21;;
33912;SDS011;20200;52.084;5.224;2022-07-22T08:23:28;8.31;;;1.8;;
33912;SDS011;20200;52.084;5.224;2022-07-22T08:25:15;5.8;;;1.9;;
33912;SDS011;20200;52.084;5.224;2022-07-22T08:27:02;5.3;;;1.8;;
33912;SDS011;20200;52.084;5.224;2022-07-22T08:30:36;6.5;;;1.8;;
33912;SDS011;20200;52.084;5.224;2022-07-22T08:32:23;8.9;;;2.1;;
33912;SDS011;20200;52.084;5.224;2022-07-22T08:34:09;7.2;;;1.9;;
33912;SDS011;20200;52.084;5.224;2022-07-22T08:35:56;5.7;;;1.9;;
33912;SDS011;20200;52.084;5.224;2022-07-22T08:37:45;6.2;;;1.8;;
33912;SDS011;20200;52.084;5.224;2022-07-22T08:39:34;8.0;;;1.8;;
33912;SDS011;20200;52.084;5.224;2022-07-22T08:43:10;8.0;;;2.1;;
33912;SDS011;20200;52.084;5.224;2022-07-22T08:44:56;6.3;;;2.21;;
33912;SDS011;20200;52.084;5.224;2022-07-22T08:46:44;11.4;;;2.6;;
33912;SDS011;20200;52.084;5.224;2022-07-22T08:48:31;9.71;;;2.31;;
33912;SDS011;20200;52.084;5.224;2022-07-22T08:50:17;7.6;;;2.5;;
33912;SDS011;20200;52.084;5.224;2022-07-22T08:52:05;5.7;;;2.21;;
33912;SDS011;20200;52.084;5.224;2022-07-22T08:55:40;7.2;;;2.4;;
33912;SDS011;20200;52.084;5.224;2022-07-22T08:57:28;6.9;;;2.21;;
33912;SDS011;20200;52.084;5.224;2022-07-22T08:59:14;7.3;;;2.31;;
33912;SDS011;20200;52.084;5.224;2022-07-22T09:01:05;4.5;;;2.1;;
33912;SDS011;20200;52.084;5.224;2022-07-22T09:02:53;5.2;;;2.0;;
33912;SDS011;20200;52.084;5.224;2022-07-22T09:04:49;4.91;;;2.1;;
33912;SDS011;20200;52.084;5.224;2022-07-22T09:06:47;4.91;;;1.9;;
33912;SDS011;20200;52.084;5.224;2022-07-22T09:10:36;5.11;;;1.8;;
33912;SDS011;20200;52.084;5.224;2022-07-22T09:12:23;5.4;;;1.9;;
33912;SDS011;20200;52.084;5.224;2022-07-22T09:14:11;5.4;;;1.8;;
33912;SDS011;20200;52.084;5.224;2022-07-22T09:15:57;7.1;;;2.1;;
33912;SDS011;20200;52.084;5.224;2022-07-22T09:17:44;6.2;;;2.5;;
33912;SDS011;20200;52.084;5.224;2022-07-22T09:19:32;7.3;;;3.9;;
33912;SDS011;20200;52.084;5.224;2022-07-22T09:21:20;7.0;;;2.7;;
33912;SDS011;20200;52.084;5.224;2022-07-22T09:24:57;8.1;;;2.6;;
33912;SDS011;20200;52.084;5.224;2022-07-22T09:26:44;4.8;;;2.21;;
33912;SDS011;20200;52.084;5.224;2022-07-22T09:28:30;5.6;;;2.21;;
33912;SDS011;20200;52.084;5.224;2022-07-22T09:30:17;6.0;;;3.1;;
33912;SDS011;20200;52.084;5.224;2022-07-22T09:32:06;5.9;;;2.6;;
33912;SDS011;20200;52.084;5.224;2022-07-22T09:33:53;6.4;;;2.9;;
33912;SDS011;20200;52.084;5.224;2022-07-22T09:37:28;6.4;;;2.8;;
33912;SDS011;20200;52.084;5.224;2022-07-22T09:39:23;7.4;;;3.3;;
33912;SDS011;20200;52.084;5.224;2022-07-22T09:41:13;6.6;;;2.8;;
33912;SDS011;20200;52.084;5.224;2022-07-22T09:43:01;5.9;;;2.9;;
33912;SDS011;20200;52.084;5.224;2022-07-22T09:44:50;9.21;;;3.1;;
33912;SDS011;20200;52.084;5.224;2022-07-22T09:46:37;6.2;;;2.9;;
33912;SDS011;20200;52.084;5.224;2022-07-22T09:50:15;7.5;;;2.8;;
33912;SDS011;20200;52.084;5.224;2022-07-22T09:52:06;6.4;;;2.9;;
33912;SDS011;20200;52.084;5.224;2022-07-22T09:53:52;6.3;;;3.0;;
33912;SDS011;20200;52.084;5.224;2022-07-22T09:55:41;7.2;;;2.9;;
33912;SDS011;20200;52.084;5.224;2022-07-22T09:57:27;5.9;;;2.8;;
33912;SDS011;20200;52.084;5.224;2022-07-22T09:59:14;7.4;;;2.7;;
33912;SDS011;20200;52.084;5.224;2022-07-22T10:02:53;5.3;;;2.4;;
33912;SDS011;20200;52.084;5.224;2022-07-22T10:04:42;8.0;;;2.7;;
33912;SDS011;20200;52.084;5.224;2022-07-22T10:06:33;5.2;;;2.5;;
33912;SDS011;20200;52.084;5.224;2022-07-22T10:08:23;9.6;;;3.2;;
33912;SDS011;20200;52.084;5.224;2022-07-22T10:10:12;9.4;;;6.0;;
33912;SDS011;20200;52.084;5.224;2022-07-22T10:12:01;9.4;;;6.0;;
33912;SDS011;20200;52.084;5.224;2022-07-22T10:13:48;8.9;;;4.3;;
33912;SDS011;20200;52.084;5.224;2022-07-22T10:17:24;6.5;;;4.5;;
33912;SDS011;20200;52.084;5.224;2022-07-22T10:19:11;7.6;;;4.61;;
33912;SDS011;20200;52.084;5.224;2022-07-22T10:21:02;8.9;;;4.5;;
33912;SDS011;20200;52.084;5.224;2022-07-22T10:22:51;7.7;;;4.8;;
33912;SDS011;20200;52.084;5.224;2022-07-22T10:24:59;7.2;;;4.41;;
33912;SDS011;20200;52.084;5.224;2022-07-22T10:26:46;8.31;;;4.5;;
33912;SDS011;20200;52.084;5.224;2022-07-22T10:28:35;7.4;;;4.7;;
33912;SDS011;20200;52.084;5.224;2022-07-22T10:30:25;8.6;;;5.0;;
33912;SDS011;20200;52.084;5.224;2022-07-22T10:34:09;9.21;;;4.91;;
33912;SDS011;20200;52.084;5.224;2022-07-22T10:35:56;8.5;;;4.5;;
33912;SDS011;20200;52.084;5.224;2022-07-22T10:37:47;11.8;;;4.8;;
33912;SDS011;20200;52.084;5.224;2022-07-22T10:39:42;9.81;;;5.3;;
33912;SDS011;20200;52.084;5.224;2022-07-22T10:41:56;8.5;;;4.8;;
33912;SDS011;20200;52.084;5.224;2022-07-22T10:43:45;8.6;;;4.91;;
33912;SDS011;20200;52.084;5.224;2022-07-22T10:45:33;7.9;;;5.0;;
33912;SDS011;20200;52.084;5.224;2022-07-22T10:47:39;7.9;;;4.7;;
33912;SDS011;20200;52.084;5.224;2022-07-22T10:49:38;7.7;;;5.3;;
33912;SDS011;20200;52.084;5.224;2022-07-22T10:51:26;11.4;;;5.6;;
33912;SDS011;20200;52.084;5.224;2022-07-22T10:55:17;7.7;;;5.2;;
33912;SDS011;20200;52.084;5.224;2022-07-22T10:57:05;8.71;;;5.11;;
33912;SDS011;20200;52.084;5.224;2022-07-22T10:58:53;8.31;;;4.61;;
33912;SDS011;20200;52.084;5.224;2022-07-22T11:00:43;8.0;;;4.7;;
33912;SDS011;20200;52.084;5.224;2022-07-22T11:02:29;7.7;;;4.5;;
33912;SDS011;20200;52.084;5.224;2022-07-22T11:04:18;10.5;;;4.41;;
33912;SDS011;20200;52.084;5.224;2022-07-22T11:06:12;6.8;;;3.8;;
33912;SDS011;20200;52.084;5.224;2022-07-22T11:08:08;6.6;;;3.8;;
33912;SDS011;20200;52.084;5.224;2022-07-22T11:11:55;8.71;;;4.2;;
33912;SDS011;20200;52.084;5.224;2022-07-22T11:13:44;8.6;;;4.3;;
33912;SDS011;20200;52.084;5.224;2022-07-22T11:15:31;6.8;;;4.0;;
33912;SDS011;20200;52.084;5.224;2022-07-22T11:17:17;7.5;;;4.3;;
33912;SDS011;20200;52.084;5.224;2022-07-22T11:19:03;10.0;;;4.41;;
33912;SDS011;20200;52.084;5.224;2022-07-22T11:20:50;9.0;;;4.0;;
33912;SDS011;20200;52.084;5.224;2022-07-22T11:22:38;8.2;;;4.41;;
33912;SDS011;20200;52.084;5.224;2022-07-22T11:26:13;8.1;;;4.91;;
33912;SDS011;20200;52.084;5.224;2022-07-22T11:28:02;7.3;;;4.41;;
33912;SDS011;20200;52.084;5.224;2022-07-22T11:29:49;7.8;;;4.5;;
33912;SDS011;20200;52.084;5.224;2022-07-22T11:31:37;7.5;;;4.7;;
33912;SDS011;20200;52.084;5.224;2022-07-22T11:33:24;6.5;;;4.2;;
33912;SDS011;20200;52.084;5.224;2022-07-22T11:35:11;7.4;;;4.2;;
33912;SDS011;20200;52.084;5.224;2022-07-22T11:38:45;10.21;;;4.41;;
33912;SDS011;20200;52.084;5.224;2022-07-22T11:40:33;7.0;;;4.5;;
33912;SDS011;20200;52.084;5.224;2022-07-22T11:42:19;7.9;;;4.5;;
33912;SDS011;20200;52.084;5.224;2022-07-22T11:44:06;11.7;;;5.8;;
33912;SDS011;20200;52.084;5.224;2022-07-22T11:45:56;7.3;;;4.61;;
33912;SDS011;20200;52.084;5.224;2022-07-22T11:47:48;7.2;;;4.41;;
33912;SDS011;20200;52.084;5.224;2022-07-22T11:51:27;7.9;;;4.3;;
33912;SDS011;20200;52.084;5.224;2022-07-22T11:53:15;7.0;;;4.1;;
33912;SDS011;20200;52.084;5.224;2022-07-22T11:55:02;7.4;;;3.8;;
33912;SDS011;20200;52.084;5.224;2022-07-22T11:57:01;7.4;;;3.8;;
33912;SDS011;20200;52.084;5.224;2022-07-22T11:58:49;8.1;;;3.9;;
33912;SDS011;20200;52.084;5.224;2022-07-22T12:00:38;7.4;;;4.2;;
33912;SDS011;20200;52.084;5.224;2022-07-22T12:02:24;7.4;;;4.1;;
33912;SDS011;20200;52.084;5.224;2022-07-22T12:06:02;7.8;;;4.41;;
33912;SDS011;20200;52.084;5.224;2022-07-22T12:07:52;10.6;;;4.61;;
33912;SDS011;20200;52.084;5.224;2022-07-22T12:09:38;8.1;;;4.41;;
33912;SDS011;20200;52.084;5.224;2022-07-22T12:11:26;6.8;;;4.0;;
33912;SDS011;20200;52.084;5.224;2022-07-22T12:13:14;9.71;;;4.2;;
33912;SDS011;20200;52.084;5.224;2022-07-22T12:15:00;5.9;;;4.0;;
33912;SDS011;20200;52.084;5.224;2022-07-22T12:18:42;8.81;;;4.2;;
33912;SDS011;20200;52.084;5.224;2022-07-22T12:20:29;8.1;;;4.7;;
33912;SDS011;20200;52.084;5.224;2022-07-22T12:22:19;7.2;;;4.2;;
33912;SDS011;20200;52.084;5.224;2022-07-22T12:24:07;8.1;;;4.5;;
33912;SDS011;20200;52.084;5.224;2022-07-22T12:25:55;5.9;;;4.2;;
33912;SDS011;20200;52.084;5.224;2022-07-22T12:27:49;7.7;;;4.3;;
33912;SDS011;20200;52.084;5.224;2022-07-22T12:29:46;9.81;;;4.8;;
33912;SDS011;20200;52.084;5.224;2022-07-22T12:33:28;7.0;;;4.3;;
33912;SDS011;20200;52.084;5.224;2022-07-22T12:35:14;9.31;;;4.41;;
33912;SDS011;20200;52.084;5.224;2022-07-22T12:37:18;7.8;;;4.1;;
33912;SDS011;20200;52.084;5.224;2022-07-22T12:39:11;6.6;;;3.8;;
33912;SDS011;20200;52.084;5.224;2022-07-22T12:41:34;7.6;;;3.7;;
33912;SDS011;20200;52.084;5.224;2022-07-22T12:43:32;7.1;;;4.2;;
33912;SDS011;20200;52.084;5.224;2022-07-22T12:45:25;5.6;;;4.2;;
33912;SDS011;20200;52.084;5.224;2022-07-22T12:47:13;7.4;;;4.5;;
33912;SDS011;20200;52.084;5.224;2022-07-22T12:49:00;6.4;;;3.7;;
33912;SDS011;20200;52.084;5.224;2022-07-22T12:50:54;7.5;;;4.5;;
33912;SDS011;20200;52.084;5.224;2022-07-22T12:52:42;6.8;;;4.41;;
33912;SDS011;20200;52.084;5.224;2022-07-22T12:56:14;7.8;;;4.3;;
33912;SDS011;20200;52.084;5.224;2022-07-22T12:58:00;7.4;;;4.7;;
33912;SDS011;20200;52.084;5.224;2022-07-22T12:59:51;8.4;;;4.5;;
33912;SDS011;20200;52.084;5.224;2022-07-22T13:01:38;8.4;;;4.5;;